Cafer Dede — V7PR8 — position and weather

sailwx.info

Track history (hours):
 
Tides and Currents Weather Stations Pressure Air Temp Water Temp Dewpoint Dewpoint Depression Visibility Wind Speed Wind Dir Waves Ship Positions

Cafer Dede

Last reported at 2017-Nov-17 22:37 UTC. Time now 2017-Nov-22 20:51 UTC.
Position N 34°26' E 033°32'.

Length 182 m; draft 9.4 m.

Type: Ship (hazmat cat A). MMSI: 538090362.

Date/timePositionNaut miles runAvg speedWind from/ knotsBaromVisibWave heightAir tempDewpointWater temp
2017-Nov-17 22:37N 34°26' E 033°32'616.5
2017-Nov-17 22:14N 34°21' E 033°27'416.5
2017-Nov-17 22:00N 34°19' E 033°23'816.5
2017-Nov-17 21:30N 34°13' E 033°16'816.4
2017-Nov-17 21:00N 34°08' E 033°08'916.6
2017-Nov-17 20:29N 34°02' E 033°01'1216.8
2017-Nov-17 19:47N 33°54' E 032°50'817.0
2017-Nov-17 19:17N 33°48' E 032°43'2316.7
2017-Nov-17 17:53N 33°32' E 032°22'716.6
2017-Nov-17 17:28N 33°27' E 032°16'916.5
2017-Nov-17 16:54N 33°21' E 032°08'1616.6
2017-Nov-17 15:58N 33°10' E 031°54'5516.9
2017-Nov-17 12:41N 32°32' E 031°07'316.8
2017-Nov-17 12:30N 32°30' E 031°04'816.6
2017-Nov-17 12:00N 32°25' E 030°57'4316.4
2017-Nov-17 09:23N 31°55' E 030°20'816.6
2017-Nov-17 08:55N 31°50' E 030°13'42 2.5
2017-Nov-16 15:53N 31°16' E 029°43'17315.2
2017-Nov-16 04:31N 32°13' E 026°30'015.6
2017-Nov-16 04:30N 32°13' E 026°30'63815.1
2017-Nov-14 10:14N 35°42' E 014°24'415.2
2017-Nov-14 09:58N 35°44' E 014°19'715.0
2017-Nov-14 09:30N 35°47' E 014°12'715.0
2017-Nov-14 09:00N 35°51' E 014°04'815.0
2017-Nov-14 08:30N 35°55' E 013°56'815.1
2017-Nov-14 08:00N 35°60' E 013°48'714.9
2017-Nov-14 07:30N 36°03' E 013°41'  
2017-Nov-11 21:56N 36°00' W 005°08'818.7
2017-Nov-11 21:30N 36°00' W 005°17'714.3
2017-Nov-11 21:01N 36°05' W 005°24'1 1.5
2017-Nov-11 20:30N 36°06' W 005°24'0 0.1
2017-Nov-11 19:59N 36°06' W 005°24'0 0.1
2017-Nov-11 19:29N 36°06' W 005°24'0 0.1
2017-Nov-11 18:56N 36°06' W 005°24'0 0.1
2017-Nov-11 18:29N 36°06' W 005°24'0 0.0
2017-Nov-11 17:59N 36°06' W 005°24'0 0.0
2017-Nov-11 17:28N 36°06' W 005°24'0 0.0
2017-Nov-11 16:58N 36°06' W 005°24'0 0.0
2017-Nov-11 16:19N 36°06' W 005°24'0 0.0
2017-Nov-11 15:58N 36°06' W 005°24'0 0.1
2017-Nov-11 15:27N 36°06' W 005°24'0 0.1
2017-Nov-11 15:00N 36°06' W 005°24'0 0.0
2017-Nov-11 14:27N 36°06' W 005°24'0 0.0
2017-Nov-11 14:00N 36°06' W 005°24'0 0.0
2017-Nov-11 13:30N 36°06' W 005°24'0 0.0
2017-Nov-11 12:59N 36°06' W 005°24'0 0.1
2017-Nov-11 12:28N 36°06' W 005°24'2 3.4
2017-Nov-11 11:50N 36°08' W 005°25'0 0.0
2017-Nov-11 11:26N 36°08' W 005°25'0 0.0
2017-Nov-11 11:00N 36°08' W 005°25'0 0.0
2017-Nov-11 10:29N 36°08' W 005°25'0 0.0
2017-Nov-11 09:59N 36°08' W 005°25'0 0.0
2017-Nov-11 09:02N 36°08' W 005°25'0 0.0
2017-Nov-11 08:47N 36°08' W 005°25'0 0.0
2017-Nov-11 08:19N 36°08' W 005°25'0 0.0
2017-Nov-11 07:58N 36°08' W 005°25'0 0.0
2017-Nov-11 07:19N 36°08' W 005°25'0 0.0
2017-Nov-11 06:58N 36°08' W 005°25'0 0.0
2017-Nov-11 06:28N 36°08' W 005°25'0 0.0
2017-Nov-11 06:01N 36°08' W 005°25'0 0.0
2017-Nov-11 05:30N 36°08' W 005°25'0 0.0
2017-Nov-11 05:00N 36°08' W 005°25'0 0.0
2017-Nov-11 04:30N 36°08' W 005°25'0 0.0
2017-Nov-11 04:00N 36°08' W 005°25'0 0.0
2017-Nov-11 03:28N 36°08' W 005°25'0 0.0
2017-Nov-11 02:07N 36°08' W 005°25'0 0.1
2017-Nov-11 01:56N 36°08' W 005°25'5 4.9
2017-Nov-11 00:56N 36°04' W 005°22'0 1.1
2017-Nov-11 00:30N 36°04' W 005°22'1 1.3
2017-Nov-11 00:00N 36°03' W 005°22'1 1.6
2017-Nov-10 23:30N 36°04' W 005°21'1 2.2
2017-Nov-10 23:00N 36°04' W 005°23'3 6.1
2017-Nov-10 22:30N 36°01' W 005°23'713.5
2017-Nov-10 22:00N 35°57' W 005°30'  
Track history (hours):
 
Tides and Currents Weather Stations Pressure Air Temp Water Temp Dewpoint Dewpoint Depression Visibility Wind Speed Wind Dir Waves Ship Positions

Cafer Dede

Last reported at 2017-Nov-17 22:37 UTC. Time now 2017-Nov-22 20:51 UTC.
Position N 34°26' E 033°32'.

Length 182 m; draft 9.4 m.

Type: Ship (hazmat cat A). MMSI: 538090362.

Date/timePositionNaut miles runAvg speedWind from/ knotsBaromVisibWave heightAir tempDewpointWater temp
2017-Nov-17 22:37N 34°26' E 033°32'616.5
2017-Nov-17 22:14N 34°21' E 033°27'416.5
2017-Nov-17 22:00N 34°19' E 033°23'816.5
2017-Nov-17 21:30N 34°13' E 033°16'816.4
2017-Nov-17 21:00N 34°08' E 033°08'916.6
2017-Nov-17 20:29N 34°02' E 033°01'1216.8
2017-Nov-17 19:47N 33°54' E 032°50'817.0
2017-Nov-17 19:17N 33°48' E 032°43'2316.7
2017-Nov-17 17:53N 33°32' E 032°22'716.6
2017-Nov-17 17:28N 33°27' E 032°16'916.5
2017-Nov-17 16:54N 33°21' E 032°08'1616.6
2017-Nov-17 15:58N 33°10' E 031°54'5516.9
2017-Nov-17 12:41N 32°32' E 031°07'316.8
2017-Nov-17 12:30N 32°30' E 031°04'816.6
2017-Nov-17 12:00N 32°25' E 030°57'4316.4
2017-Nov-17 09:23N 31°55' E 030°20'816.6
2017-Nov-17 08:55N 31°50' E 030°13'42 2.5
2017-Nov-16 15:53N 31°16' E 029°43'17315.2
2017-Nov-16 04:31N 32°13' E 026°30'015.6
2017-Nov-16 04:30N 32°13' E 026°30'63815.1
2017-Nov-14 10:14N 35°42' E 014°24'415.2
2017-Nov-14 09:58N 35°44' E 014°19'715.0
2017-Nov-14 09:30N 35°47' E 014°12'715.0
2017-Nov-14 09:00N 35°51' E 014°04'815.0
2017-Nov-14 08:30N 35°55' E 013°56'815.1
2017-Nov-14 08:00N 35°60' E 013°48'714.9
2017-Nov-14 07:30N 36°03' E 013°41'  
2017-Nov-11 21:56N 36°00' W 005°08'818.7
2017-Nov-11 21:30N 36°00' W 005°17'714.3
2017-Nov-11 21:01N 36°05' W 005°24'1 1.5
2017-Nov-11 20:30N 36°06' W 005°24'0 0.1
2017-Nov-11 19:59N 36°06' W 005°24'0 0.1
2017-Nov-11 19:29N 36°06' W 005°24'0 0.1
2017-Nov-11 18:56N 36°06' W 005°24'0 0.1
2017-Nov-11 18:29N 36°06' W 005°24'0 0.0
2017-Nov-11 17:59N 36°06' W 005°24'0 0.0
2017-Nov-11 17:28N 36°06' W 005°24'0 0.0
2017-Nov-11 16:58N 36°06' W 005°24'0 0.0
2017-Nov-11 16:19N 36°06' W 005°24'0 0.0
2017-Nov-11 15:58N 36°06' W 005°24'0 0.1
2017-Nov-11 15:27N 36°06' W 005°24'0 0.1
2017-Nov-11 15:00N 36°06' W 005°24'0 0.0
2017-Nov-11 14:27N 36°06' W 005°24'0 0.0
2017-Nov-11 14:00N 36°06' W 005°24'0 0.0
2017-Nov-11 13:30N 36°06' W 005°24'0 0.0
2017-Nov-11 12:59N 36°06' W 005°24'0 0.1
2017-Nov-11 12:28N 36°06' W 005°24'2 3.4
2017-Nov-11 11:50N 36°08' W 005°25'0 0.0
2017-Nov-11 11:26N 36°08' W 005°25'0 0.0
2017-Nov-11 11:00N 36°08' W 005°25'0 0.0
2017-Nov-11 10:29N 36°08' W 005°25'0 0.0
2017-Nov-11 09:59N 36°08' W 005°25'0 0.0
2017-Nov-11 09:02N 36°08' W 005°25'0 0.0
2017-Nov-11 08:47N 36°08' W 005°25'0 0.0
2017-Nov-11 08:19N 36°08' W 005°25'0 0.0
2017-Nov-11 07:58N 36°08' W 005°25'0 0.0
2017-Nov-11 07:19N 36°08' W 005°25'0 0.0
2017-Nov-11 06:58N 36°08' W 005°25'0 0.0
2017-Nov-11 06:28N 36°08' W 005°25'0 0.0
2017-Nov-11 06:01N 36°08' W 005°25'0 0.0
2017-Nov-11 05:30N 36°08' W 005°25'0 0.0
2017-Nov-11 05:00N 36°08' W 005°25'0 0.0
2017-Nov-11 04:30N 36°08' W 005°25'0 0.0
2017-Nov-11 04:00N 36°08' W 005°25'0 0.0
2017-Nov-11 03:28N 36°08' W 005°25'0 0.0
2017-Nov-11 02:07N 36°08' W 005°25'0 0.1
2017-Nov-11 01:56N 36°08' W 005°25'5 4.9
2017-Nov-11 00:56N 36°04' W 005°22'0 1.1
2017-Nov-11 00:30N 36°04' W 005°22'1 1.3
2017-Nov-11 00:00N 36°03' W 005°22'1 1.6
2017-Nov-10 23:30N 36°04' W 005°21'1 2.2
2017-Nov-10 23:00N 36°04' W 005°23'3 6.1
2017-Nov-10 22:30N 36°01' W 005°23'713.5
2017-Nov-10 22:00N 35°57' W 005°30'  

Dump ship's entire track history